Time;durP1;ratioP1;P1;durP2;ratioP2;P2;SDS_P1;SDS_P2;PMS_P1;PMS_P2;Temp;Humidity;BMP_temperature;BMP_pressure;BME280_temperature;BME280_humidity;BME280_pressure;Samples;Min_cycle;Max_cycle;Signal;HPM_P1;HPM_P2
2021/07/20 08:55:43;;;;;;;7.15;3.45;;;26.60;97.30;;;;;;4969628;28;20238;-79
2021/07/20 08:58:20;;;;;;;7.72;3.55;;;27.30;96.90;;;;;;4970393;28;20666;-80
2021/07/20 09:00:48;;;;;;;7.57;3.47;;;27.70;96.10;;;;;;4960361;28;20308;-79
2021/07/20 09:03:32;;;;;;;6.90;3.83;;;27.60;96.10;;;;;;4962816;28;20611;-77
2021/07/20 09:06:04;;;;;;;6.72;3.75;;;27.50;96.20;;;;;;4957976;29;20243;-79
2021/07/20 09:08:36;;;;;;;6.47;3.75;;;27.30;96.60;;;;;;4957351;29;20227;-77
2021/07/20 09:11:11;;;;;;;6.05;3.60;;;27.60;96.30;;;;;;4959318;28;20237;-76
2021/07/20 09:13:50;;;;;;;5.95;3.42;;;27.80;96.00;;;;;;4972919;28;20238;-79
2021/07/20 09:16:31;;;;;;;6.63;3.80;;;27.80;96.20;;;;;;4977629;28;20202;-77
2021/07/20 09:19:03;;;;;;;6.55;3.83;;;28.00;96.70;;;;;;4976408;28;20265;-78
2021/07/20 09:21:32;;;;;;;7.72;4.25;;;28.30;96.00;;;;;;4976577;28;20231;-78
2021/07/20 09:24:06;;;;;;;6.78;3.50;;;28.40;95.10;;;;;;4976892;28;20551;-78
2021/07/20 09:26:40;;;;;;;6.68;3.38;;;28.20;95.60;;;;;;4976419;28;20213;-78
2021/07/20 09:29:13;;;;;;;6.43;3.80;;;28.10;96.00;;;;;;4976207;28;20242;-79
2021/07/20 09:32:22;;;;;;;5.57;3.15;;;27.80;96.00;;;;;;4976342;28;20227;-79
2021/07/20 09:35:03;;;;;;;6.28;3.67;;;27.70;95.70;;;;;;4976910;28;20213;-79
2021/07/20 09:37:38;;;;;;;6.88;3.45;;;27.90;95.30;;;;;;4976794;28;20295;-78
2021/07/20 09:40:18;;;;;;;7.63;3.80;;;27.80;96.10;;;;;;4978057;28;20213;-78
2021/07/20 09:43:00;;;;;;;8.70;4.22;;;27.70;95.80;;;;;;4977779;28;20641;-79
2021/07/20 09:45:33;;;;;;;7.40;3.80;;;28.00;95.80;;;;;;4977159;28;20678;-78
2021/07/20 09:48:05;;;;;;;6.03;3.50;;;28.10;96.10;;;;;;4976093;28;20207;-78
2021/07/20 09:50:38;;;;;;;6.78;3.70;;;28.20;96.00;;;;;;4964812;28;20209;-78
2021/07/20 09:53:31;;;;;;;6.72;3.47;;;28.70;94.90;;;;;;4965057;28;20235;-78
2021/07/20 09:56:20;;;;;;;6.80;3.88;;;28.30;94.90;;;;;;4975802;28;20654;-77
2021/07/20 09:58:58;;;;;;;5.90;3.70;;;28.30;95.30;;;;;;4975820;28;20262;-76
2021/07/20 10:01:31;;;;;;;7.35;3.80;;;28.30;95.40;;;;;;4975734;28;20234;-77
2021/07/20 10:04:04;;;;;;;7.10;3.65;;;26.80;96.40;;;;;;4976352;28;20274;-77
2021/07/20 10:06:38;;;;;;;11.15;3.72;;;26.10;97.70;;;;;;4976495;28;20297;-79
2021/07/20 10:09:07;;;;;;;8.40;4.53;;;26.30;98.10;;;;;;4975484;28;20294;-77
2021/07/20 10:11:43;;;;;;;9.35;4.50;;;26.50;98.70;;;;;;4975424;28;20223;-78
2021/07/20 10:14:29;;;;;;;7.03;3.70;;;26.60;97.60;;;;;;4975851;28;20234;-79
2021/07/20 10:17:06;;;;;;;6.20;3.30;;;26.30;97.90;;;;;;4975532;28;20211;-78
2021/07/20 10:19:40;;;;;;;6.60;3.30;;;25.90;98.60;;;;;;4975023;28;20666;-78
2021/07/20 10:22:12;;;;;;;9.40;4.15;;;25.70;99.00;;;;;;4975024;28;20242;-78
2021/07/20 10:24:46;;;;;;;6.38;3.92;;;25.60;99.60;;;;;;4975364;28;20211;-78
2021/07/20 10:27:16;;;;;;;7.60;3.55;;;25.60;99.10;;;;;;4974949;28;20685;-79
2021/07/20 10:29:55;;;;;;;8.43;4.03;;;25.00;99.90;;;;;;4975650;28;20242;-78
2021/07/20 10:32:29;;;;;;;7.32;4.25;;;25.10;99.90;;;;;;4975319;28;20223;-79
2021/07/20 10:35:01;;;;;;;8.48;4.32;;;25.10;99.90;;;;;;4974864;28;20218;-78
2021/07/20 10:37:31;;;;;;;7.60;3.83;;;25.30;99.90;;;;;;4974744;28;20243;-78
2021/07/20 10:40:03;;;;;;;9.07;4.07;;;25.50;99.80;;;;;;4974630;28;20654;-79
2021/07/20 10:42:38;;;;;;;5.93;3.50;;;25.40;99.90;;;;;;4974715;28;20231;-79
2021/07/20 10:45:09;;;;;;;9.43;4.00;;;25.40;99.90;;;;;;4975231;28;20736;-78
2021/07/20 10:47:53;;;;;;;5.10;3.25;;;25.20;99.90;;;;;;4976842;28;20286;-78
2021/07/20 10:50:26;;;;;;;6.78;3.85;;;24.80;99.90;;;;;;4974679;28;20218;-77
2021/07/20 10:53:09;;;;;;;5.50;3.20;;;24.60;99.90;;;;;;4975716;28;20211;-80
2021/07/20 10:55:43;;;;;;;6.40;3.50;;;24.40;99.90;;;;;;4975004;28;20211;-76
2021/07/20 10:58:23;;;;;;;6.53;3.47;;;24.60;99.90;;;;;;4974034;28;20217;-78
2021/07/20 11:00:59;;;;;;;7.85;3.80;;;24.60;99.90;;;;;;4974036;28;20637;-78
2021/07/20 11:03:35;;;;;;;6.35;3.40;;;24.30;99.90;;;;;;4975359;28;20233;-78
2021/07/20 11:06:04;;;;;;;5.65;3.33;;;24.10;99.90;;;;;;4975001;28;20217;-78
2021/07/20 11:08:33;;;;;;;7.03;3.95;;;24.10;99.90;;;;;;4969602;28;20646;-77
2021/07/20 11:11:02;;;;;;;9.38;3.88;;;24.40;99.90;;;;;;4967740;28;20223;-76
2021/07/20 11:13:33;;;;;;;9.98;3.78;;;24.70;99.90;;;;;;4974370;28;20235;-78
2021/07/20 11:16:20;;;;;;;5.50;3.00;;;25.00;99.90;;;;;;4957425;29;20254;-78
2021/07/20 11:18:51;;;;;;;5.38;3.47;;;24.70;99.90;;;;;;4971800;28;20242;-77
2021/07/20 11:21:22;;;;;;;6.13;3.80;;;24.70;99.90;;;;;;4979143;28;20330;-78
2021/07/20 11:23:52;;;;;;;7.05;3.20;;;24.80;99.90;;;;;;4978007;28;20211;-77
2021/07/20 11:26:20;;;;;;;8.60;3.10;;;24.80;99.90;;;;;;4975230;28;20234;-78
2021/07/20 11:28:48;;;;;;;8.27;3.95;;;24.90;99.90;;;;;;4977121;28;20203;-78
2021/07/20 11:31:22;;;;;;;6.75;3.70;;;24.90;99.90;;;;;;4977566;28;20254;-77
2021/07/20 11:33:53;;;;;;;8.57;3.58;;;24.90;99.90;;;;;;4974376;28;20238;-81
2021/07/20 11:36:23;;;;;;;8.55;4.13;;;24.50;99.90;;;;;;4974122;28;20222;-81
2021/07/20 11:38:55;;;;;;;9.45;3.85;;;24.50;99.90;;;;;;4974325;28;20670;-81
2021/07/20 11:41:35;;;;;;;9.32;3.70;;;24.40;99.90;;;;;;4975260;28;20233;-81
2021/07/20 11:44:23;;;;;;;6.13;3.33;;;24.10;99.90;;;;;;4976075;28;20213;-80
2021/07/20 11:46:57;;;;;;;5.90;3.00;;;24.30;99.90;;;;;;4974306;28;20213;-80
2021/07/20 11:49:37;;;;;;;5.25;2.88;;;24.60;99.90;;;;;;4974325;28;20218;-80
2021/07/20 11:52:06;;;;;;;5.50;3.15;;;24.50;99.90;;;;;;4974266;28;20231;-79
2021/07/20 11:55:00;;;;;;;6.40;3.30;;;24.30;99.90;;;;;;4974066;28;20235;-80
2021/07/20 11:58:08;;;;;;;4.70;2.85;;;24.10;99.90;;;;;;4977636;28;20210;-81
2021/07/20 12:01:15;;;;;;;8.90;3.55;;;24.20;99.90;;;;;;4977711;28;20210;-81
2021/07/20 12:04:01;;;;;;;8.35;3.15;;;24.10;99.90;;;;;;4977841;28;20199;-81
2021/07/20 12:06:46;;;;;;;6.18;3.28;;;24.30;99.90;;;;;;4977783;28;20211;-80
2021/07/20 12:09:26;;;;;;;5.93;3.25;;;24.60;99.90;;;;;;4978187;28;20650;-79
2021/07/20 12:11:55;;;;;;;8.02;3.83;;;24.80;99.90;;;;;;4977982;28;20230;-79
2021/07/20 12:14:23;;;;;;;8.20;3.47;;;25.00;99.90;;;;;;4972982;28;20248;-80
2021/07/20 12:16:50;;;;;;;6.07;3.45;;;25.20;99.90;;;;;;4977295;28;20207;-81
2021/07/20 12:19:28;;;;;;;4.75;3.10;;;25.40;99.90;;;;;;4977297;28;20202;-80
2021/07/20 12:21:56;;;;;;;6.70;3.30;;;25.60;99.90;;;;;;4977187;28;20233;-81
2021/07/20 12:24:24;;;;;;;5.72;3.30;;;25.50;99.90;;;;;;4977189;28;20207;-81
2021/07/20 12:26:52;;;;;;;10.15;3.75;;;25.20;99.90;;;;;;4977321;28;20682;-80
2021/07/20 12:29:19;;;;;;;6.10;3.55;;;25.10;99.90;;;;;;4977592;28;20208;-80
2021/07/20 12:31:49;;;;;;;8.15;3.67;;;25.20;99.90;;;;;;4977094;28;20306;-85
2021/07/20 12:34:17;;;;;;;5.35;3.05;;;25.00;99.90;;;;;;4976756;28;21261;-80
2021/07/20 12:36:46;;;;;;;5.85;3.33;;;24.40;99.90;;;;;;4976669;28;20650;-82
2021/07/20 12:39:15;;;;;;;6.60;3.58;;;24.40;99.90;;;;;;4977268;28;20212;-83
2021/07/20 12:41:46;;;;;;;5.72;3.53;;;24.60;99.90;;;;;;4976921;28;20582;-82
2021/07/20 12:44:14;;;;;;;8.70;4.00;;;24.70;99.90;;;;;;4976644;28;20577;-83
2021/07/20 12:46:41;;;;;;;6.57;3.42;;;24.80;99.90;;;;;;4977107;28;20210;-81
2021/07/20 12:49:08;;;;;;;8.82;4.00;;;24.90;99.90;;;;;;4976822;28;20210;-81
2021/07/20 12:51:35;;;;;;;8.10;4.13;;;25.10;99.90;;;;;;4976701;28;20227;-83
2021/07/20 12:54:04;;;;;;;7.65;4.00;;;25.20;99.90;;;;;;4976533;28;20242;-84
2021/07/20 12:56:33;;;;;;;6.18;3.53;;;25.20;99.90;;;;;;4976775;28;20230;-82
2021/07/20 12:59:02;;;;;;;7.45;3.90;;;25.20;99.90;;;;;;4976867;28;20214;-80
2021/07/20 13:01:31;;;;;;;7.30;3.75;;;25.20;99.90;;;;;;4976197;28;20233;-80
2021/07/20 13:04:00;;;;;;;5.75;3.63;;;25.50;99.90;;;;;;4976444;28;20215;-83
2021/07/20 13:06:28;;;;;;;6.80;3.67;;;25.20;99.90;;;;;;4977129;28;20223;-81
2021/07/20 13:08:55;;;;;;;8.35;3.33;;;25.20;99.90;;;;;;4976401;28;20670;-82
2021/07/20 13:11:23;;;;;;;5.57;3.28;;;25.40;99.90;;;;;;4976187;28;20231;-83
2021/07/20 13:13:50;;;;;;;6.38;3.42;;;25.20;99.90;;;;;;4971203;28;20235;-81
2021/07/20 13:16:19;;;;;;;6.18;3.28;;;24.90;99.90;;;;;;4973153;28;20214;-82
2021/07/20 13:18:50;;;;;;;5.93;3.38;;;24.80;99.90;;;;;;4976566;28;20203;-82
2021/07/20 13:21:19;;;;;;;17.63;3.67;;;25.10;99.90;;;;;;4976237;28;20274;-81
2021/07/20 13:23:46;;;;;;;7.40;3.35;;;25.30;99.90;;;;;;4976247;28;20211;-81
2021/07/20 13:26:23;;;;;;;5.65;3.28;;;25.60;99.90;;;;;;4975880;28;20215;-82
2021/07/20 13:28:54;;;;;;;6.40;3.70;;;25.60;99.90;;;;;;4975971;28;20211;-81
2021/07/20 13:31:29;;;;;;;6.57;3.53;;;25.30;99.90;;;;;;4976450;28;20229;-80
2021/07/20 13:33:55;;;;;;;7.32;3.60;;;25.10;99.90;;;;;;4975910;28;20238;-78
2021/07/20 13:36:24;;;;;;;6.22;3.58;;;25.00;99.90;;;;;;4976314;28;20211;-80
2021/07/20 13:38:52;;;;;;;7.10;3.10;;;24.90;99.90;;;;;;4975927;28;20203;-80
2021/07/20 13:41:20;;;;;;;6.45;3.88;;;25.00;99.90;;;;;;4975644;28;20318;-79
2021/07/20 13:43:50;;;;;;;6.95;3.45;;;25.00;99.90;;;;;;4975545;28;20199;-78
2021/07/20 13:46:17;;;;;;;9.55;4.25;;;25.10;99.90;;;;;;4975738;28;20215;-80
2021/07/20 13:48:46;;;;;;;9.43;3.88;;;24.80;99.90;;;;;;4975997;28;20629;-78
2021/07/20 13:51:16;;;;;;;7.78;3.70;;;24.90;99.90;;;;;;4975937;28;20234;-79
2021/07/20 13:53:47;;;;;;;7.63;3.40;;;25.10;99.90;;;;;;4975419;28;20223;-78
2021/07/20 13:56:18;;;;;;;7.78;3.97;;;25.10;99.90;;;;;;4975373;28;20207;-79
2021/07/20 13:58:47;;;;;;;7.28;3.70;;;25.00;99.90;;;;;;4975531;28;20211;-78
2021/07/20 14:01:17;;;;;;;6.97;3.47;;;25.20;99.90;;;;;;4978538;28;20231;-80
2021/07/20 14:03:45;;;;;;;6.60;3.47;;;25.40;99.90;;;;;;4977610;28;20536;-78
2021/07/20 14:06:13;;;;;;;8.27;3.83;;;25.30;99.90;;;;;;4977713;28;20207;-79
2021/07/20 14:08:40;;;;;;;6.47;3.00;;;25.00;99.90;;;;;;4961236;28;20207;-79
2021/07/20 14:11:08;;;;;;;7.15;3.80;;;25.10;99.90;;;;;;4977825;28;20902;-80
2021/07/20 14:13:36;;;;;;;6.43;3.45;;;25.10;99.90;;;;;;4978261;28;20207;-79
2021/07/20 14:16:05;;;;;;;6.13;3.28;;;25.20;99.90;;;;;;4973839;28;20731;-80
2021/07/20 14:18:34;;;;;;;7.97;3.42;;;25.10;99.90;;;;;;4977048;28;20207;-78
2021/07/20 14:21:01;;;;;;;7.03;3.47;;;24.90;99.90;;;;;;4974788;28;20227;-78
2021/07/20 14:23:28;;;;;;;7.75;3.70;;;24.90;99.90;;;;;;4975267;28;20262;-79
2021/07/20 14:25:58;;;;;;;9.40;3.90;;;25.00;99.90;;;;;;4975018;28;20215;-79
2021/07/20 14:28:26;;;;;;;6.07;3.63;;;24.90;99.90;;;;;;4975416;28;20211;-78
2021/07/20 14:30:55;;;;;;;8.25;3.97;;;24.90;99.90;;;;;;4974322;28;20234;-78
2021/07/20 14:33:25;;;;;;;9.30;4.30;;;25.10;99.90;;;;;;4974054;28;20195;-79
2021/07/20 14:35:53;;;;;;;8.98;3.78;;;25.30;99.90;;;;;;4974368;28;20639;-78
2021/07/20 14:38:37;;;;;;;7.25;3.97;;;25.20;99.90;;;;;;4974283;28;20223;-79
2021/07/20 14:41:06;;;;;;;6.30;3.45;;;25.10;99.90;;;;;;4974587;28;20234;-78
2021/07/20 14:43:38;;;;;;;6.38;3.80;;;25.10;99.90;;;;;;4974135;28;20687;-79
2021/07/20 14:46:10;;;;;;;6.88;3.83;;;25.10;99.90;;;;;;4974488;28;20212;-78
2021/07/20 14:48:40;;;;;;;8.55;3.97;;;25.10;99.90;;;;;;4974538;28;20214;-78
2021/07/20 14:51:08;;;;;;;6.55;3.72;;;24.90;99.90;;;;;;4974263;28;20226;-78
2021/07/20 14:53:35;;;;;;;6.75;3.85;;;25.00;99.90;;;;;;4974695;28;20215;-78
2021/07/20 14:56:11;;;;;;;7.72;4.00;;;25.10;99.90;;;;;;4974306;28;20231;-78
2021/07/20 14:58:39;;;;;;;8.40;3.72;;;25.10;99.90;;;;;;4974968;28;20320;-79
2021/07/20 15:01:09;;;;;;;6.05;3.33;;;24.90;99.90;;;;;;4974581;28;20231;-79
2021/07/20 15:03:39;;;;;;;9.63;4.38;;;24.80;99.90;;;;;;4974574;28;20638;-78
2021/07/20 15:06:09;;;;;;;8.43;4.32;;;25.00;99.90;;;;;;4974440;28;20211;-78
2021/07/20 15:08:38;;;;;;;6.88;3.47;;;25.30;99.90;;;;;;4974167;28;20551;-78
2021/07/20 15:11:45;;;;;;;5.65;3.50;;;25.50;99.90;;;;;;4962110;28;20318;-78
2021/07/20 15:14:15;;;;;;;6.93;3.47;;;25.50;99.90;;;;;;4967819;28;20210;-78
2021/07/20 15:16:44;;;;;;;6.47;3.33;;;25.60;99.90;;;;;;4969803;28;20210;-78
2021/07/20 15:19:13;;;;;;;6.50;3.78;;;25.60;99.30;;;;;;4974074;28;20206;-78
2021/07/20 15:21:45;;;;;;;6.97;3.55;;;25.70;99.00;;;;;;4973645;28;20223;-77
2021/07/20 15:24:14;;;;;;;9.52;3.58;;;25.90;97.80;;;;;;4974152;28;20203;-78
2021/07/20 15:26:42;;;;;;;7.30;3.50;;;26.00;99.10;;;;;;4973745;28;20213;-78
2021/07/20 15:29:09;;;;;;;6.10;3.67;;;25.90;97.90;;;;;;4973762;28;20242;-78
2021/07/20 15:31:37;;;;;;;6.10;3.50;;;25.80;98.80;;;;;;4972729;28;20227;-78
2021/07/20 15:34:04;;;;;;;8.60;3.15;;;25.60;99.00;;;;;;4974213;28;20206;-78
2021/07/20 15:36:32;;;;;;;8.10;3.40;;;25.60;99.30;;;;;;4974268;28;20211;-78
2021/07/20 15:39:04;;;;;;;6.22;3.40;;;25.50;98.70;;;;;;4974385;28;20210;-78
2021/07/20 15:41:34;;;;;;;9.15;3.67;;;25.70;99.40;;;;;;4973989;28;20223;-78
2021/07/20 15:44:00;;;;;;;6.85;3.42;;;25.40;99.50;;;;;;4974109;28;20207;-79
2021/07/20 15:46:28;;;;;;;7.15;3.90;;;25.50;99.90;;;;;;4973645;28;20211;-79
2021/07/20 15:48:56;;;;;;;7.47;3.53;;;25.00;99.60;;;;;;4973799;28;20211;-78
2021/07/20 15:51:24;;;;;;;10.70;4.18;;;24.90;99.50;;;;;;4973697;28;20698;-78
2021/07/20 15:53:52;;;;;;;6.72;3.58;;;24.80;99.10;;;;;;4973849;28;20242;-78
2021/07/20 15:56:20;;;;;;;9.15;3.70;;;24.90;99.70;;;;;;4973859;28;20275;-78
2021/07/20 15:58:51;;;;;;;7.93;3.92;;;25.00;99.90;;;;;;4973816;28;20294;-78
2021/07/20 16:01:19;;;;;;;6.95;3.42;;;25.10;99.90;;;;;;4973964;28;20223;-79
2021/07/20 16:03:48;;;;;;;5.55;3.28;;;24.90;99.90;;;;;;4973417;28;20693;-78
2021/07/20 16:06:18;;;;;;;7.28;3.42;;;24.80;99.90;;;;;;4973657;28;20769;-79
2021/07/20 16:08:45;;;;;;;6.90;3.85;;;24.80;99.90;;;;;;4973742;28;20273;-78
2021/07/20 16:11:17;;;;;;;6.03;3.47;;;24.70;99.90;;;;;;4968744;28;20556;-78
2021/07/20 16:13:54;;;;;;;6.80;3.78;;;24.80;99.90;;;;;;4972014;28;20211;-77
2021/07/20 16:16:26;;;;;;;9.10;3.88;;;24.90;99.90;;;;;;4956515;28;20239;-73
2021/07/20 16:18:54;;;;;;;6.80;3.58;;;25.20;99.70;;;;;;4972161;28;20213;-87
2021/07/20 16:21:22;;;;;;;5.95;3.63;;;25.30;99.20;;;;;;4971803;28;20228;-78
2021/07/20 16:23:49;;;;;;;7.85;3.88;;;25.20;99.30;;;;;;4971973;28;20216;-81
2021/07/20 16:26:17;;;;;;;8.75;4.05;;;25.30;99.80;;;;;;4972148;28;20657;-75
2021/07/20 16:28:46;;;;;;;6.93;3.55;;;25.40;99.50;;;;;;4971962;28;20682;-79
2021/07/20 16:31:15;;;;;;;6.25;3.67;;;25.50;99.90;;;;;;4972278;28;20227;-77
2021/07/20 16:33:45;;;;;;;6.93;3.65;;;25.50;99.90;;;;;;4972242;28;20215;-77
2021/07/20 16:36:12;;;;;;;7.97;4.10;;;25.30;99.90;;;;;;4971560;28;20305;-81
2021/07/20 16:38:39;;;;;;;6.75;3.88;;;25.30;99.90;;;;;;4971974;28;20221;-77
2021/07/20 16:41:08;;;;;;;8.25;4.43;;;25.10;99.90;;;;;;4972069;28;20227;-76
2021/07/20 16:43:38;;;;;;;7.97;3.78;;;25.20;99.90;;;;;;4966592;28;20200;-75
2021/07/20 16:46:07;;;;;;;6.80;3.53;;;25.20;99.60;;;;;;4973727;28;20211;-79
2021/07/20 16:48:36;;;;;;;7.05;3.58;;;25.10;99.40;;;;;;4972426;28;20199;-84
2021/07/20 16:51:07;;;;;;;7.80;4.07;;;24.90;99.90;;;;;;4974815;28;20583;-83
2021/07/20 16:53:39;;;;;;;7.07;3.78;;;24.90;99.90;;;;;;4973005;28;20208;-77
2021/07/20 16:56:10;;;;;;;8.30;3.55;;;25.00;99.90;;;;;;4974187;28;20344;-77
2021/07/20 16:58:41;;;;;;;5.93;3.47;;;25.10;99.90;;;;;;4975778;28;20210;-78
2021/07/20 17:01:08;;;;;;;8.68;3.60;;;25.10;99.80;;;;;;4974557;28;20223;-77
2021/07/20 17:03:36;;;;;;;7.25;3.58;;;25.20;99.90;;;;;;4974611;28;20207;-77
2021/07/20 17:06:04;;;;;;;6.35;3.47;;;25.20;99.90;;;;;;4974899;28;20290;-85
2021/07/20 17:08:32;;;;;;;7.07;3.75;;;25.00;99.90;;;;;;4975354;28;20665;-75
2021/07/20 17:10:59;;;;;;;8.40;4.15;;;25.10;99.40;;;;;;4975242;28;20263;-76
2021/07/20 17:13:27;;;;;;;6.90;3.95;;;25.20;99.60;;;;;;4974537;28;20221;-76
2021/07/20 17:15:54;;;;;;;6.82;3.75;;;25.20;98.90;;;;;;4974890;28;20375;-82
2021/07/20 17:18:21;;;;;;;10.73;3.80;;;25.40;99.30;;;;;;4975074;28;20242;-75
2021/07/20 17:20:55;;;;;;;7.10;3.63;;;25.40;99.70;;;;;;4974638;28;20638;-77
2021/07/20 17:23:23;;;;;;;7.38;3.38;;;25.40;99.90;;;;;;4975085;28;20266;-76
2021/07/20 17:26:01;;;;;;;9.63;3.95;;;25.40;99.40;;;;;;4973753;28;20207;-77
2021/07/20 17:28:28;;;;;;;8.15;4.30;;;25.40;99.80;;;;;;4974361;28;20214;-75
2021/07/20 17:30:56;;;;;;;5.35;3.03;;;25.40;99.90;;;;;;4973908;28;20236;-74
2021/07/20 17:33:25;;;;;;;6.10;3.10;;;25.20;99.90;;;;;;4973414;28;20693;-74
2021/07/20 17:35:57;;;;;;;7.70;3.92;;;24.90;99.90;;;;;;4974382;28;20231;-75
2021/07/20 17:38:28;;;;;;;6.93;3.78;;;24.80;99.90;;;;;;4975645;28;20207;-75
2021/07/20 17:41:05;;;;;;;7.95;3.67;;;24.50;99.90;;;;;;4975765;28;20579;-75
2021/07/20 17:43:34;;;;;;;7.60;3.95;;;24.60;99.90;;;;;;4956434;29;20215;-76
2021/07/20 17:46:01;;;;;;;5.95;3.83;;;24.60;99.90;;;;;;4965032;28;20207;-76
2021/07/20 17:48:28;;;;;;;6.70;3.67;;;24.40;99.90;;;;;;4975994;28;20569;-76
2021/07/20 17:50:59;;;;;;;7.53;3.70;;;24.40;99.90;;;;;;4975398;28;20250;-75
2021/07/20 17:53:26;;;;;;;7.15;4.25;;;24.40;99.90;;;;;;4974186;28;20218;-76
2021/07/20 17:55:56;;;;;;;7.57;3.50;;;24.40;99.90;;;;;;4974831;28;20235;-76
2021/07/20 17:58:23;;;;;;;7.38;3.75;;;24.60;99.90;;;;;;4975170;28;20270;-76
2021/07/20 18:00:50;;;;;;;7.57;3.55;;;24.60;99.90;;;;;;4975746;28;20223;-77
2021/07/20 18:03:17;;;;;;;7.40;3.65;;;24.60;99.90;;;;;;4975282;28;20215;-77
2021/07/20 18:05:44;;;;;;;6.60;3.20;;;24.50;99.90;;;;;;4974692;28;20666;-76
2021/07/20 18:08:12;;;;;;;7.78;3.63;;;24.40;99.90;;;;;;4975085;28;20207;-76
2021/07/20 18:10:39;;;;;;;6.80;3.78;;;24.40;99.90;;;;;;4968837;28;20206;-76
2021/07/20 18:13:07;;;;;;;7.30;3.72;;;24.40;99.90;;;;;;4955995;28;20208;-77
2021/07/20 18:15:34;;;;;;;7.65;3.25;;;24.40;99.90;;;;;;4960112;28;20269;-76
2021/07/20 18:18:03;;;;;;;8.05;3.92;;;24.40;99.90;;;;;;4975281;28;20207;-76
2021/07/20 18:20:30;;;;;;;6.80;3.42;;;24.20;99.90;;;;;;4969573;28;20732;-76
2021/07/20 18:22:57;;;;;;;7.85;3.50;;;24.20;99.90;;;;;;4974964;28;20689;-76
2021/07/20 18:25:26;;;;;;;9.02;3.90;;;24.20;99.90;;;;;;4974891;28;20218;-76
2021/07/20 18:27:54;;;;;;;5.90;3.13;;;24.10;99.90;;;;;;4975181;28;20281;-76
2021/07/20 18:30:21;;;;;;;8.48;4.03;;;23.80;99.90;;;;;;4975560;28;20211;-77
2021/07/20 18:32:48;;;;;;;6.57;3.45;;;23.80;99.90;;;;;;4975294;28;20234;-76
2021/07/20 18:35:15;;;;;;;7.30;3.60;;;23.80;99.90;;;;;;4974782;28;20207;-76
2021/07/20 18:37:43;;;;;;;5.93;3.67;;;23.60;99.90;;;;;;4974857;28;20214;-76
2021/07/20 18:40:10;;;;;;;7.05;3.55;;;23.60;99.90;;;;;;4974968;28;20548;-77
2021/07/20 18:42:38;;;;;;;7.25;3.60;;;23.50;99.90;;;;;;4974656;28;20231;-76
2021/07/20 18:45:06;;;;;;;6.65;3.33;;;23.50;99.90;;;;;;4975025;28;20211;-76
2021/07/20 18:47:33;;;;;;;6.53;3.38;;;23.50;99.90;;;;;;4974570;28;20213;-76
2021/07/20 18:50:00;;;;;;;8.23;3.75;;;23.50;99.90;;;;;;4974607;28;20206;-76
2021/07/20 18:52:26;;;;;;;8.00;3.60;;;23.40;99.90;;;;;;4973940;28;20229;-76
2021/07/20 18:54:53;;;;;;;6.85;3.55;;;23.50;99.90;;;;;;4974316;28;20685;-76
2021/07/20 18:57:20;;;;;;;6.88;3.42;;;23.60;99.90;;;;;;4974848;28;20594;-76
2021/07/20 18:59:49;;;;;;;6.47;3.30;;;23.50;99.90;;;;;;4974541;28;20233;-76
2021/07/20 19:02:16;;;;;;;7.05;3.50;;;23.60;99.90;;;;;;4974432;28;20231;-76
2021/07/20 19:04:43;;;;;;;6.38;3.50;;;23.50;99.90;;;;;;4974237;28;20689;-76
2021/07/20 19:07:09;;;;;;;7.10;3.78;;;23.70;99.90;;;;;;4974389;28;20246;-75
2021/07/20 19:09:36;;;;;;;7.20;4.15;;;23.70;99.90;;;;;;4974381;28;20214;-76
2021/07/20 19:12:03;;;;;;;8.38;3.63;;;23.70;99.90;;;;;;4974622;28;20231;-77
2021/07/20 19:14:30;;;;;;;6.38;3.22;;;23.40;99.90;;;;;;4969784;28;20204;-77
2021/07/20 19:16:58;;;;;;;10.40;3.70;;;23.30;99.90;;;;;;4959938;28;20242;-77
2021/07/20 19:19:25;;;;;;;7.68;4.10;;;23.30;99.90;;;;;;4974343;28;20214;-77
2021/07/20 19:21:52;;;;;;;8.13;3.92;;;23.30;99.90;;;;;;4968549;28;20227;-77
2021/07/20 19:24:19;;;;;;;9.07;3.70;;;23.10;99.90;;;;;;4974421;28;20210;-77
2021/07/20 19:26:46;;;;;;;7.93;4.05;;;23.10;99.90;;;;;;4973832;28;20209;-77
2021/07/20 19:29:14;;;;;;;6.10;3.25;;;23.10;99.90;;;;;;4973871;28;20219;-77
2021/07/20 19:31:41;;;;;;;6.72;3.53;;;23.00;99.90;;;;;;4974186;28;20337;-77
2021/07/20 19:34:09;;;;;;;6.50;3.90;;;22.90;99.90;;;;;;4974653;28;20203;-77
2021/07/20 19:36:36;;;;;;;8.23;3.67;;;22.90;99.90;;;;;;4974588;28;20230;-77
2021/07/20 19:39:05;;;;;;;5.95;3.75;;;22.80;99.90;;;;;;4974071;28;20286;-77
2021/07/20 19:41:31;;;;;;;10.30;3.75;;;22.70;99.90;;;;;;4973514;28;20239;-77
2021/07/20 19:43:58;;;;;;;7.95;3.42;;;22.60;99.90;;;;;;4974100;28;20230;-77
2021/07/20 19:46:25;;;;;;;5.63;3.30;;;22.60;99.90;;;;;;4974030;28;20218;-77
2021/07/20 19:48:52;;;;;;;7.90;3.42;;;22.40;99.90;;;;;;4973959;28;20211;-77
2021/07/20 19:51:20;;;;;;;7.43;3.75;;;22.40;99.90;;;;;;4973446;28;20306;-77
2021/07/20 19:53:46;;;;;;;6.15;3.50;;;22.30;99.90;;;;;;4964491;28;20219;-77
2021/07/20 19:56:15;;;;;;;7.68;4.30;;;22.40;99.90;;;;;;4954485;29;20246;-77
2021/07/20 19:58:42;;;;;;;7.03;3.67;;;22.30;99.90;;;;;;4954228;29;20549;-77
2021/07/20 20:01:09;;;;;;;8.02;3.65;;;22.20;99.90;;;;;;4966254;28;20227;-77
2021/07/20 20:03:36;;;;;;;7.88;4.00;;;22.20;99.90;;;;;;4973800;28;20199;-77
2021/07/20 20:06:03;;;;;;;8.80;3.63;;;22.10;99.90;;;;;;4973322;28;20218;-77
2021/07/20 20:08:31;;;;;;;10.45;3.72;;;21.90;99.90;;;;;;4973196;28;20265;-76
2021/07/20 20:10:58;;;;;;;6.53;3.65;;;21.80;99.90;;;;;;4972349;28;20717;-77
2021/07/20 20:13:26;;;;;;;8.32;3.90;;;21.70;99.90;;;;;;4972772;28;20697;-77
2021/07/20 20:15:53;;;;;;;9.13;3.85;;;21.70;99.90;;;;;;4973569;28;20235;-78
2021/07/20 20:18:20;;;;;;;7.85;3.60;;;21.60;99.90;;;;;;4977248;28;20211;-78
2021/07/20 20:20:47;;;;;;;6.05;2.92;;;21.50;99.90;;;;;;4977239;28;20633;-80
2021/07/20 20:23:14;;;;;;;7.70;3.85;;;21.40;99.90;;;;;;4977231;28;20577;-79
2021/07/20 20:25:43;;;;;;;8.38;4.18;;;21.40;99.90;;;;;;4977649;28;20565;-81
2021/07/20 20:28:10;;;;;;;6.45;3.67;;;21.30;99.90;;;;;;4977279;28;20597;-86
2021/07/20 20:30:37;;;;;;;8.02;3.75;;;21.20;99.90;;;;;;4977414;28;20207;-79
2021/07/20 20:33:03;;;;;;;6.30;3.40;;;21.10;99.90;;;;;;4977188;28;20374;-77
2021/07/20 20:35:31;;;;;;;8.27;4.13;;;21.10;99.90;;;;;;4976983;28;20230;-82
2021/07/20 20:37:57;;;;;;;5.85;3.45;;;21.10;99.90;;;;;;4976725;28;20239;-81
2021/07/20 20:40:30;;;;;;;7.88;3.83;;;21.00;99.90;;;;;;4976824;28;20203;-83
2021/07/20 20:42:59;;;;;;;8.20;4.22;;;20.90;99.90;;;;;;4976924;28;20219;-89
2021/07/20 20:45:25;;;;;;;8.32;4.00;;;20.90;99.90;;;;;;4976302;28;20218;-80
2021/07/20 20:47:52;;;;;;;8.07;3.80;;;20.90;99.90;;;;;;4976809;28;20205;-82
2021/07/20 20:50:19;;;;;;;8.30;4.15;;;20.80;99.90;;;;;;4976531;28;20199;-82
2021/07/20 20:52:46;;;;;;;9.80;4.20;;;20.70;99.90;;;;;;4971081;28;20223;-84
